Time;durP1;ratioP1;P1;durP2;ratioP2;P2;SDS_P1;SDS_P2;PMS_P1;PMS_P2;Temp;Humidity;BMP_temperature;BMP_pressure;BME280_temperature;BME280_humidity;BME280_pressure;Samples;Min_cycle;Max_cycle;Signal;HPM_P1;HPM_P2
2022/04/30 00:00:00;;;;;;;29.02;16.55;;;;;;;;;;5003359;28;20029;-72
2022/04/30 00:02:26;;;;;;;28.60;16.92;;;;;;;;;;5005091;28;20496;-74
2022/04/30 00:04:53;;;;;;;26.15;16.45;;;;;;;;;;5010490;28;20104;-74
2022/04/30 00:07:20;;;;;;;34.65;16.33;;;;;;;;;;5005842;28;20582;-75
2022/04/30 00:09:47;;;;;;;25.90;17.33;;;;;;;;;;5002055;28;20087;-73
2022/04/30 00:12:13;;;;;;;28.67;16.58;;;;;;;;;;5005114;28;20459;-72
2022/04/30 00:14:40;;;;;;;23.15;15.32;;;;;;;;;;5004850;28;20058;-73
2022/04/30 00:17:06;;;;;;;29.40;17.23;;;;;;;;;;5008329;28;20316;-73
2022/04/30 00:19:33;;;;;;;30.92;16.60;;;;;;;;;;5000291;28;20042;-72
2022/04/30 00:21:59;;;;;;;29.50;17.42;;;;;;;;;;5007155;28;20104;-71
2022/04/30 00:24:26;;;;;;;26.10;16.00;;;;;;;;;;4999283;28;20255;-74
2022/04/30 00:26:52;;;;;;;26.48;15.75;;;;;;;;;;5004433;28;20029;-74
2022/04/30 00:29:18;;;;;;;24.15;15.20;;;;;;;;;;5017681;28;20189;-73
2022/04/30 00:31:45;;;;;;;28.20;17.35;;;;;;;;;;5014383;28;20044;-73
2022/04/30 00:34:11;;;;;;;28.27;17.08;;;;;;;;;;5005812;28;20503;-74
2022/04/30 00:36:37;;;;;;;27.80;16.50;;;;;;;;;;5011321;28;20036;-74
2022/04/30 00:39:04;;;;;;;24.90;17.10;;;;;;;;;;5008784;28;20029;-73
2022/04/30 00:41:32;;;;;;;28.23;16.23;;;;;;;;;;5007889;28;20038;-74
2022/04/30 00:43:58;;;;;;;26.80;15.65;;;;;;;;;;5006180;28;20100;-73
2022/04/30 00:46:25;;;;;;;26.10;15.20;;;;;;;;;;5007948;28;20159;-72
2022/04/30 00:48:53;;;;;;;24.98;14.90;;;;;;;;;;4997463;28;20038;-73
2022/04/30 00:51:20;;;;;;;28.45;16.23;;;;;;;;;;4993357;28;20084;-72
2022/04/30 00:53:51;;;;;;;25.05;15.52;;;;;;;;;;5007311;28;20445;-73
2022/04/30 00:56:27;;;;;;;29.13;15.00;;;;;;;;;;5003720;28;20447;-72
2022/04/30 00:58:54;;;;;;;28.48;16.52;;;;;;;;;;5001969;28;20017;-74
2022/04/30 01:01:21;;;;;;;28.55;16.23;;;;;;;;;;5007175;28;20436;-73
2022/04/30 01:03:47;;;;;;;28.52;17.73;;;;;;;;;;5005155;28;20069;-74
2022/04/30 01:06:13;;;;;;;25.75;15.38;;;;;;;;;;5004274;28;20033;-73
2022/04/30 01:08:40;;;;;;;27.73;16.13;;;;;;;;;;5003288;28;20092;-73
2022/04/30 01:11:07;;;;;;;32.97;16.27;;;;;;;;;;5009602;28;20044;-73
2022/04/30 01:13:35;;;;;;;27.40;16.77;;;;;;;;;;5002275;28;20111;-73
2022/04/30 01:16:02;;;;;;;31.88;18.38;;;;;;;;;;4999182;28;20026;-73
2022/04/30 01:18:29;;;;;;;31.45;17.27;;;;;;;;;;5005497;28;20456;-73
2022/04/30 01:20:57;;;;;;;30.95;17.42;;;;;;;;;;5009806;28;20030;-74
2022/04/30 01:23:24;;;;;;;27.63;18.02;;;;;;;;;;4998129;28;20056;-73
2022/04/30 01:25:51;;;;;;;33.83;19.02;;;;;;;;;;5015986;28;20068;-73
2022/04/30 01:28:19;;;;;;;31.02;19.15;;;;;;;;;;4997085;28;20037;-72
2022/04/30 01:30:45;;;;;;;30.50;17.95;;;;;;;;;;5000656;28;20094;-72
2022/04/30 01:38:40;;;;;;;29.63;17.80;;;;;;;;;;5000334;28;20193;-73
2022/04/30 01:41:07;;;;;;;34.00;20.15;;;;;;;;;;5004495;28;20033;-73
2022/04/30 01:43:33;;;;;;;31.70;18.40;;;;;;;;;;5000817;28;20036;-73
2022/04/30 01:46:00;;;;;;;32.70;19.10;;;;;;;;;;5003797;28;20043;-73
2022/04/30 01:48:27;;;;;;;28.45;18.30;;;;;;;;;;5006946;28;20099;-72
2022/04/30 01:50:54;;;;;;;33.42;17.50;;;;;;;;;;5007616;28;20030;-73
2022/04/30 01:53:21;;;;;;;31.15;18.08;;;;;;;;;;4997062;28;20029;-73
2022/04/30 01:55:47;;;;;;;30.30;16.95;;;;;;;;;;5005220;28;20468;-72
2022/04/30 01:58:13;;;;;;;32.35;18.40;;;;;;;;;;4996546;28;20034;-72
2022/04/30 02:00:40;;;;;;;27.33;16.58;;;;;;;;;;4999956;28;20551;-73
2022/04/30 02:03:08;;;;;;;27.35;17.45;;;;;;;;;;5005901;28;20034;-73
2022/04/30 02:05:34;;;;;;;32.05;17.15;;;;;;;;;;5003924;28;20026;-74
2022/04/30 02:08:03;;;;;;;29.13;17.40;;;;;;;;;;5000009;28;20424;-72
2022/04/30 02:10:30;;;;;;;29.48;17.88;;;;;;;;;;5003024;28;20014;-73
2022/04/30 02:12:56;;;;;;;26.98;16.58;;;;;;;;;;4996073;28;20037;-73
2022/04/30 02:15:23;;;;;;;33.28;17.40;;;;;;;;;;5003859;28;20288;-74
2022/04/30 02:17:50;;;;;;;30.05;17.83;;;;;;;;;;5007069;28;20089;-73
2022/04/30 02:20:22;;;;;;;29.88;18.00;;;;;;;;;;4998018;28;20032;-72
2022/04/30 02:22:56;;;;;;;29.88;17.48;;;;;;;;;;5007230;28;20106;-73
2022/04/30 02:25:22;;;;;;;30.15;17.27;;;;;;;;;;4999419;28;20416;-73
2022/04/30 02:27:50;;;;;;;32.58;17.55;;;;;;;;;;5004713;28;20090;-73
2022/04/30 02:30:21;;;;;;;33.95;18.05;;;;;;;;;;5003127;28;20037;-74
2022/04/30 02:32:54;;;;;;;29.70;16.67;;;;;;;;;;4996708;28;20026;-74
2022/04/30 02:35:21;;;;;;;27.75;16.63;;;;;;;;;;4995492;28;21174;-74
2022/04/30 02:37:52;;;;;;;29.17;15.65;;;;;;;;;;4996024;28;20026;-72
2022/04/30 02:40:19;;;;;;;24.50;15.05;;;;;;;;;;5010247;28;20049;-73
2022/04/30 02:42:46;;;;;;;24.98;15.63;;;;;;;;;;5000360;28;20038;-73
2022/04/30 02:45:15;;;;;;;25.42;15.30;;;;;;;;;;5002750;28;20033;-74
2022/04/30 02:47:42;;;;;;;30.63;16.55;;;;;;;;;;5000117;28;20122;-73
2022/04/30 02:50:09;;;;;;;26.30;14.00;;;;;;;;;;4999643;28;20037;-73
2022/04/30 02:52:36;;;;;;;33.78;15.90;;;;;;;;;;5003763;28;20030;-73
2022/04/30 02:55:04;;;;;;;27.20;14.35;;;;;;;;;;5002002;28;20026;-74
2022/04/30 02:57:39;;;;;;;27.25;15.82;;;;;;;;;;5001208;28;20116;-73
2022/04/30 03:00:08;;;;;;;24.38;14.93;;;;;;;;;;5009565;28;20037;-72
2022/04/30 03:02:35;;;;;;;23.45;15.20;;;;;;;;;;5000942;28;20039;-72
2022/04/30 03:05:01;;;;;;;28.13;14.65;;;;;;;;;;5004312;28;20040;-73
2022/04/30 03:07:27;;;;;;;26.00;13.73;;;;;;;;;;5006332;28;20022;-73
2022/04/30 03:09:53;;;;;;;22.10;13.60;;;;;;;;;;5004348;28;20030;-72
2022/04/30 03:12:19;;;;;;;21.77;13.70;;;;;;;;;;5002197;28;20547;-73
2022/04/30 03:14:46;;;;;;;22.70;14.77;;;;;;;;;;5004927;28;20080;-73
2022/04/30 03:22:41;;;;;;;19.75;11.43;;;;;;;;;;5003447;28;20037;-73
2022/04/30 03:25:07;;;;;;;19.17;11.77;;;;;;;;;;5001389;28;20098;-74
2022/04/30 03:27:34;;;;;;;18.60;10.57;;;;;;;;;;5006741;28;20053;-73
2022/04/30 03:30:00;;;;;;;17.33;10.90;;;;;;;;;;5011097;28;20108;-74
2022/04/30 03:32:26;;;;;;;21.98;11.77;;;;;;;;;;5002704;28;20477;-73
2022/04/30 03:34:52;;;;;;;16.35;9.90;;;;;;;;;;5003988;28;20064;-73
2022/04/30 03:37:19;;;;;;;17.85;10.70;;;;;;;;;;5008680;28;20495;-73
2022/04/30 03:39:45;;;;;;;17.45;9.20;;;;;;;;;;5002541;28;20101;-73
2022/04/30 03:42:11;;;;;;;15.50;10.75;;;;;;;;;;4997705;28;20094;-73
2022/04/30 03:44:38;;;;;;;19.98;10.40;;;;;;;;;;4996640;28;20038;-73
2022/04/30 03:47:04;;;;;;;19.73;9.95;;;;;;;;;;5007376;28;20405;-75
2022/04/30 03:49:30;;;;;;;18.63;9.98;;;;;;;;;;5006482;28;20037;-73
2022/04/30 03:51:56;;;;;;;20.15;11.07;;;;;;;;;;5005257;28;20025;-73
2022/04/30 03:54:22;;;;;;;21.50;10.65;;;;;;;;;;5006798;28;20077;-73
2022/04/30 03:56:48;;;;;;;18.30;10.32;;;;;;;;;;5006969;28;20079;-73
2022/04/30 03:59:15;;;;;;;16.55;10.88;;;;;;;;;;5002741;28;20129;-72
2022/04/30 04:01:41;;;;;;;19.25;10.70;;;;;;;;;;5008104;28;20370;-73
2022/04/30 04:04:07;;;;;;;16.65;9.23;;;;;;;;;;5006063;28;20060;-73
2022/04/30 04:06:33;;;;;;;15.85;10.30;;;;;;;;;;5009065;28;20104;-74
2022/04/30 04:08:59;;;;;;;18.48;11.10;;;;;;;;;;5009378;28;20105;-73
2022/04/30 04:11:26;;;;;;;18.35;10.90;;;;;;;;;;5005910;28;20090;-73
2022/04/30 04:19:25;;;;;;;18.23;9.68;;;;;;;;;;5003931;28;20111;-73
2022/04/30 04:21:52;;;;;;;15.88;9.75;;;;;;;;;;5002909;28;20034;-74
2022/04/30 04:27:03;;;;;;;14.30;8.55;;;;;;;;;;4996548;28;20510;-74
2022/04/30 04:29:29;;;;;;;15.70;9.00;;;;;;;;;;5008382;28;20401;-73
2022/04/30 04:31:55;;;;;;;18.17;10.18;;;;;;;;;;5001517;28;20511;-74
2022/04/30 04:34:21;;;;;;;15.27;9.50;;;;;;;;;;5005305;28;20029;-73
2022/04/30 04:36:47;;;;;;;15.68;9.77;;;;;;;;;;5007964;28;20026;-72
2022/04/30 04:39:18;;;;;;;11.95;8.82;;;;;;;;;;5002116;28;20130;-72
2022/04/30 04:41:44;;;;;;;14.82;8.10;;;;;;;;;;5007441;28;20084;-72
2022/04/30 04:44:11;;;;;;;15.00;9.43;;;;;;;;;;5006460;28;20030;-73
2022/04/30 04:46:41;;;;;;;16.25;9.23;;;;;;;;;;5002653;28;20388;-74
2022/04/30 04:49:07;;;;;;;15.00;9.63;;;;;;;;;;5008394;28;20022;-72
2022/04/30 04:51:34;;;;;;;15.45;8.88;;;;;;;;;;5003400;28;20499;-73
2022/04/30 04:54:01;;;;;;;14.95;9.02;;;;;;;;;;5004465;28;20111;-73
2022/04/30 04:56:27;;;;;;;16.67;10.20;;;;;;;;;;5011542;28;20033;-73
2022/04/30 04:58:53;;;;;;;13.98;9.50;;;;;;;;;;5011609;28;20040;-73
2022/04/30 05:01:20;;;;;;;14.18;9.73;;;;;;;;;;5009730;28;20076;-72
2022/04/30 05:03:46;;;;;;;15.00;10.00;;;;;;;;;;5001864;28;20480;-74
2022/04/30 05:06:12;;;;;;;15.85;9.38;;;;;;;;;;5006106;28;20117;-73
2022/04/30 05:08:38;;;;;;;17.80;8.90;;;;;;;;;;5005595;28;20089;-73
2022/04/30 05:11:04;;;;;;;12.70;9.32;;;;;;;;;;5000671;28;20026;-74
2022/04/30 05:13:30;;;;;;;13.80;9.20;;;;;;;;;;4997019;28;20419;-73
2022/04/30 05:15:57;;;;;;;19.52;10.20;;;;;;;;;;4998842;28;20034;-75
2022/04/30 05:18:23;;;;;;;18.15;10.10;;;;;;;;;;5004797;28;20399;-73
2022/04/30 05:20:49;;;;;;;13.57;9.05;;;;;;;;;;5005605;28;20076;-73
2022/04/30 05:23:15;;;;;;;16.48;9.50;;;;;;;;;;5009017;28;20041;-73
2022/04/30 05:25:41;;;;;;;18.33;11.18;;;;;;;;;;5001460;28;20048;-74
2022/04/30 05:28:08;;;;;;;16.23;10.25;;;;;;;;;;5009390;28;20282;-74
2022/04/30 05:30:34;;;;;;;17.75;10.13;;;;;;;;;;5011444;28;20149;-74
2022/04/30 05:33:00;;;;;;;18.73;11.25;;;;;;;;;;5010308;28;20425;-75
2022/04/30 05:35:26;;;;;;;18.60;10.52;;;;;;;;;;5014457;28;20034;-74
2022/04/30 05:37:52;;;;;;;19.08;12.20;;;;;;;;;;5010669;28;20030;-75
2022/04/30 05:40:18;;;;;;;22.83;11.57;;;;;;;;;;5009619;28;20049;-74
2022/04/30 05:42:45;;;;;;;19.40;11.20;;;;;;;;;;5000873;28;20327;-73
2022/04/30 05:45:11;;;;;;;17.60;11.10;;;;;;;;;;5006930;28;20494;-74
2022/04/30 05:47:37;;;;;;;19.23;10.88;;;;;;;;;;5006403;28;20058;-74
2022/04/30 05:50:07;;;;;;;18.77;10.70;;;;;;;;;;5005622;28;20060;-73
2022/04/30 05:52:36;;;;;;;17.08;10.88;;;;;;;;;;5003776;28;20026;-74
2022/04/30 05:55:03;;;;;;;23.98;11.27;;;;;;;;;;5008014;28;20029;-74
2022/04/30 05:57:29;;;;;;;19.20;11.68;;;;;;;;;;5004460;28;20057;-73
2022/04/30 05:59:55;;;;;;;19.77;11.68;;;;;;;;;;5006695;28;20030;-74
2022/04/30 06:02:22;;;;;;;22.35;11.18;;;;;;;;;;5006009;28;20105;-75
2022/04/30 06:04:48;;;;;;;19.92;11.20;;;;;;;;;;5005033;28;20038;-72
2022/04/30 06:07:14;;;;;;;22.45;12.00;;;;;;;;;;5004286;28;20025;-74
2022/04/30 06:09:40;;;;;;;19.15;11.88;;;;;;;;;;5002459;28;20379;-73
2022/04/30 06:12:07;;;;;;;20.98;10.90;;;;;;;;;;5001850;28;20084;-74
2022/04/30 06:14:33;;;;;;;20.88;11.90;;;;;;;;;;5009435;28;20052;-73
2022/04/30 06:16:59;;;;;;;17.67;11.43;;;;;;;;;;4999241;28;20042;-73
2022/04/30 06:19:25;;;;;;;21.45;11.73;;;;;;;;;;4996170;28;20080;-73
2022/04/30 06:21:51;;;;;;;24.48;12.00;;;;;;;;;;5002243;28;20562;-73
2022/04/30 06:24:18;;;;;;;25.38;12.90;;;;;;;;;;5006514;28;20034;-74
2022/04/30 06:26:44;;;;;;;18.33;11.88;;;;;;;;;;5006052;28;20038;-75
2022/04/30 06:29:10;;;;;;;19.40;10.68;;;;;;;;;;5007751;28;20101;-72
2022/04/30 06:31:37;;;;;;;18.67;11.10;;;;;;;;;;5000964;28;20121;-73
2022/04/30 06:34:03;;;;;;;22.40;12.52;;;;;;;;;;4997079;28;20340;-73
2022/04/30 06:36:29;;;;;;;18.42;11.52;;;;;;;;;;5004376;28;20030;-74
2022/04/30 06:38:56;;;;;;;23.83;12.23;;;;;;;;;;5004566;28;20427;-74
2022/04/30 06:41:22;;;;;;;20.85;12.07;;;;;;;;;;5004019;28;20057;-73
2022/04/30 06:43:51;;;;;;;28.20;12.75;;;;;;;;;;5007687;28;20423;-74
2022/04/30 06:46:20;;;;;;;20.58;12.18;;;;;;;;;;5003217;28;20421;-74
2022/04/30 06:48:46;;;;;;;20.88;13.52;;;;;;;;;;5002470;28;20049;-74
2022/04/30 06:51:12;;;;;;;20.27;12.20;;;;;;;;;;5002151;28;20435;-74
2022/04/30 06:59:11;;;;;;;20.55;12.90;;;;;;;;;;5000209;28;20044;-74
2022/04/30 07:01:43;;;;;;;21.23;12.18;;;;;;;;;;5008948;28;20018;-74
2022/04/30 07:04:10;;;;;;;23.35;13.57;;;;;;;;;;5005326;28;20096;-74
2022/04/30 07:06:37;;;;;;;22.80;13.10;;;;;;;;;;5007767;28;20076;-74
2022/04/30 07:09:04;;;;;;;23.38;12.38;;;;;;;;;;5008562;28;20030;-74
2022/04/30 07:11:30;;;;;;;22.52;12.73;;;;;;;;;;5004383;28;20042;-74
2022/04/30 07:13:56;;;;;;;27.00;13.45;;;;;;;;;;4997742;28;20116;-74
2022/04/30 07:16:22;;;;;;;24.23;13.98;;;;;;;;;;5013667;28;20038;-75
2022/04/30 07:18:48;;;;;;;21.95;13.70;;;;;;;;;;4999050;28;20096;-74
2022/04/30 07:21:15;;;;;;;20.88;12.40;;;;;;;;;;5010430;28;20049;-74
2022/04/30 07:23:41;;;;;;;19.63;12.52;;;;;;;;;;5010646;28;20033;-74
2022/04/30 07:26:07;;;;;;;24.63;12.90;;;;;;;;;;5003051;28;20440;-74
2022/04/30 07:28:35;;;;;;;25.63;12.93;;;;;;;;;;5010681;28;20360;-74
2022/04/30 07:31:02;;;;;;;23.27;13.20;;;;;;;;;;5009002;28;20096;-74
2022/04/30 07:33:28;;;;;;;23.08;12.93;;;;;;;;;;5006603;28;20068;-74
2022/04/30 07:35:55;;;;;;;23.20;12.73;;;;;;;;;;5011268;28;20491;-74
2022/04/30 07:38:21;;;;;;;23.58;13.98;;;;;;;;;;5001736;28;20030;-74
2022/04/30 07:40:48;;;;;;;22.60;14.85;;;;;;;;;;5008792;28;20030;-73
2022/04/30 07:43:14;;;;;;;22.50;13.00;;;;;;;;;;5008951;28;20036;-72
2022/04/30 07:45:40;;;;;;;20.55;12.50;;;;;;;;;;5010091;28;20038;-74
2022/04/30 07:48:06;;;;;;;19.60;12.63;;;;;;;;;;5008669;28;20026;-74
2022/04/30 07:50:35;;;;;;;24.25;13.13;;;;;;;;;;5012533;28;20130;-74
2022/04/30 07:53:12;;;;;;;22.35;15.43;;;;;;;;;;5009092;28;20560;-73
2022/04/30 07:55:39;;;;;;;26.70;14.80;;;;;;;;;;5004201;28;20080;-73
2022/04/30 07:58:07;;;;;;;22.90;13.43;;;;;;;;;;5006083;28;20025;-74
2022/04/30 08:00:33;;;;;;;24.63;14.02;;;;;;;;;;5003781;28;20041;-73
2022/04/30 08:03:03;;;;;;;22.60;13.52;;;;;;;;;;5006655;28;20052;-74
2022/04/30 08:05:30;;;;;;;22.98;13.85;;;;;;;;;;5005319;28;20105;-74
2022/04/30 08:07:56;;;;;;;24.85;13.82;;;;;;;;;;5001169;28;20049;-74
2022/04/30 08:10:22;;;;;;;20.65;12.80;;;;;;;;;;5006159;28;20040;-74
2022/04/30 08:12:53;;;;;;;21.50;14.00;;;;;;;;;;4999720;28;20072;-74
2022/04/30 08:15:20;;;;;;;24.52;14.70;;;;;;;;;;5005402;28;20191;-74
2022/04/30 08:17:46;;;;;;;29.45;15.57;;;;;;;;;;5011569;28;20038;-74
2022/04/30 08:20:12;;;;;;;21.55;13.52;;;;;;;;;;5006447;28;20369;-74
2022/04/30 08:22:39;;;;;;;24.75;14.32;;;;;;;;;;5001405;28;20076;-74
2022/04/30 08:25:05;;;;;;;25.75;13.88;;;;;;;;;;5006550;28;20061;-73
2022/04/30 08:27:31;;;;;;;24.40;13.75;;;;;;;;;;5002096;28;20026;-74
2022/04/30 08:29:57;;;;;;;23.00;13.30;;;;;;;;;;5008231;28;20026;-74
2022/04/30 08:32:24;;;;;;;23.95;13.43;;;;;;;;;;5012167;28;20080;-74
2022/04/30 08:34:50;;;;;;;24.05;13.95;;;;;;;;;;5004342;28;20041;-74
2022/04/30 08:37:16;;;;;;;26.23;14.15;;;;;;;;;;4996355;28;20529;-75
2022/04/30 08:39:43;;;;;;;21.00;12.93;;;;;;;;;;5007204;28;20077;-74
2022/04/30 08:42:09;;;;;;;23.88;14.70;;;;;;;;;;5007883;28;20071;-73
2022/04/30 08:44:38;;;;;;;23.80;15.15;;;;;;;;;;5004687;28;20029;-74
2022/04/30 08:47:04;;;;;;;24.85;15.13;;;;;;;;;;5015661;28;20026;-76
2022/04/30 08:49:34;;;;;;;24.95;15.85;;;;;;;;;;5003380;28;20022;-74
2022/04/30 08:52:00;;;;;;;26.17;14.27;;;;;;;;;;5001773;28;20099;-73
2022/04/30 08:54:26;;;;;;;26.02;14.98;;;;;;;;;;5006968;28;20030;-74
2022/04/30 08:56:56;;;;;;;23.88;14.18;;;;;;;;;;5002337;28;20141;-73
2022/04/30 08:59:22;;;;;;;21.58;13.52;;;;;;;;;;5003811;28;20038;-73
2022/04/30 09:01:49;;;;;;;22.33;14.40;;;;;;;;;;5004619;28;20073;-74
2022/04/30 09:04:15;;;;;;;26.33;15.00;;;;;;;;;;4987912;28;20037;-73
2022/04/30 09:06:48;;;;;;;21.52;14.15;;;;;;;;;;5006297;28;20033;-73
2022/04/30 09:09:22;;;;;;;21.75;14.75;;;;;;;;;;5006870;28;20030;-74
2022/04/30 09:11:49;;;;;;;21.73;13.65;;;;;;;;;;5007815;28;20041;-75
2022/04/30 09:14:22;;;;;;;20.05;13.43;;;;;;;;;;5005857;28;20049;-73
2022/04/30 09:16:50;;;;;;;21.08;13.18;;;;;;;;;;5003654;28;20129;-73
2022/04/30 09:19:17;;;;;;;20.50;13.68;;;;;;;;;;5000614;28;20034;-73
2022/04/30 09:21:49;;;;;;;18.00;13.23;;;;;;;;;;4996238;28;20050;-73
2022/04/30 09:24:16;;;;;;;18.13;13.13;;;;;;;;;;4998848;28;20069;-74
2022/04/30 09:26:43;;;;;;;21.52;13.38;;;;;;;;;;4999417;28;20021;-74
2022/04/30 09:29:29;;;;;;;18.48;13.07;;;;;;;;;;4997816;28;20112;-74
2022/04/30 09:31:57;;;;;;;19.20;13.50;;;;;;;;;;5003498;28;20083;-73
2022/04/30 09:39:56;;;;;;;18.20;12.25;;;;;;;;;;4994278;28;20095;-75
2022/04/30 09:42:22;;;;;;;19.63;12.77;;;;;;;;;;4996895;28;21368;-75
2022/04/30 09:44:49;;;;;;;23.90;15.77;;;;;;;;;;4999128;28;20030;-75
2022/04/30 09:47:16;;;;;;;20.10;12.63;;;;;;;;;;4997643;28;20193;-75
2022/04/30 09:55:12;;;;;;;20.30;13.25;;;;;;;;;;5003043;28;20421;-76
2022/04/30 09:57:38;;;;;;;19.42;12.68;;;;;;;;;;5005772;28;20053;-74
2022/04/30 10:00:08;;;;;;;19.23;13.35;;;;;;;;;;4999333;28;20112;-76
2022/04/30 10:02:35;;;;;;;21.38;14.20;;;;;;;;;;5000018;28;20029;-75
2022/04/30 10:05:03;;;;;;;20.70;13.13;;;;;;;;;;5003934;28;20083;-74
2022/04/30 10:07:39;;;;;;;19.27;13.18;;;;;;;;;;4994906;28;20034;-76
2022/04/30 10:10:13;;;;;;;22.00;14.57;;;;;;;;;;4999573;28;20112;-73
2022/04/30 10:12:48;;;;;;;20.90;13.88;;;;;;;;;;5000094;28;20161;-75
2022/04/30 10:15:16;;;;;;;;;;;;;;;;;;5001601;28;20137;-75
2022/04/30 10:17:46;;;;;;;22.50;14.32;;;;;;;;;;4999896;28;20390;-75
2022/04/30 10:20:16;;;;;;;22.33;13.40;;;;;;;;;;4999767;28;20037;-76
2022/04/30 10:22:50;;;;;;;18.35;11.82;;;;;;;;;;4996765;28;20030;-76
2022/04/30 10:25:16;;;;;;;16.02;11.57;;;;;;;;;;4998268;28;20037;-76
2022/04/30 10:27:43;;;;;;;17.30;11.10;;;;;;;;;;4999220;28;20475;-76
2022/04/30 10:30:20;;;;;;;19.48;12.13;;;;;;;;;;5002062;28;20282;-75
2022/04/30 10:33:09;;;;;;;18.77;11.98;;;;;;;;;;4997970;28;20034;-75
2022/04/30 10:35:35;;;;;;;18.15;11.88;;;;;;;;;;5005116;28;20022;-76
2022/04/30 10:38:21;;;;;;;18.00;12.70;;;;;;;;;;5002402;28;20041;-75
2022/04/30 10:40:50;;;;;;;19.55;13.25;;;;;;;;;;5004731;28;20025;-76
2022/04/30 10:43:21;;;;;;;17.73;11.65;;;;;;;;;;5006960;28;20045;-76
2022/04/30 10:45:47;;;;;;;17.02;10.93;;;;;;;;;;5002253;28;20030;-76
2022/04/30 10:48:13;;;;;;;17.20;11.40;;;;;;;;;;5005838;28;20037;-77
2022/04/30 10:50:40;;;;;;;18.42;11.80;;;;;;;;;;5025924;28;20028;-76
2022/04/30 10:53:08;;;;;;;19.77;13.43;;;;;;;;;;5000887;28;20033;-76
2022/04/30 10:55:34;;;;;;;15.40;10.30;;;;;;;;;;5003820;28;20097;-76
2022/04/30 10:58:00;;;;;;;20.35;11.88;;;;;;;;;;5000551;28;20044;-76
2022/04/30 11:00:26;;;;;;;18.40;11.57;;;;;;;;;;4996754;28;20105;-77
2022/04/30 11:02:52;;;;;;;19.58;13.30;;;;;;;;;;4995913;28;20034;-76
2022/04/30 11:05:19;;;;;;;17.20;11.93;;;;;;;;;;5002253;28;20460;-78
2022/04/30 11:07:46;;;;;;;16.10;11.40;;;;;;;;;;5000418;28;20026;-77
2022/04/30 11:10:12;;;;;;;16.83;11.45;;;;;;;;;;5003744;28;20038;-76
2022/04/30 11:13:02;;;;;;;29.65;20.10;;;;;;;;;;5005351;28;20102;-75
2022/04/30 11:15:28;;;;;;;16.83;13.48;;;;;;;;;;4984047;28;20038;-76
2022/04/30 11:17:58;;;;;;;23.58;12.95;;;;;;;;;;4983369;28;20031;-75
2022/04/30 11:20:24;;;;;;;19.30;13.10;;;;;;;;;;4987024;28;20403;-76
2022/04/30 11:22:54;;;;;;;19.15;12.60;;;;;;;;;;4986400;28;20121;-76
2022/04/30 11:25:20;;;;;;;22.42;15.15;;;;;;;;;;4984569;28;20093;-75
2022/04/30 11:27:47;;;;;;;20.35;13.23;;;;;;;;;;4984959;28;20038;-76
2022/04/30 11:30:13;;;;;;;19.45;12.05;;;;;;;;;;4982428;28;20037;-76
2022/04/30 11:32:39;;;;;;;18.83;11.88;;;;;;;;;;4970884;28;20022;-75
2022/04/30 11:35:06;;;;;;;18.52;13.13;;;;;;;;;;4977006;28;20200;-76
2022/04/30 11:37:39;;;;;;;18.42;11.73;;;;;;;;;;4973170;28;20101;-76
2022/04/30 11:40:06;;;;;;;21.67;12.60;;;;;;;;;;4978531;28;20031;-76
2022/04/30 11:42:32;;;;;;;20.20;12.45;;;;;;;;;;4976225;28;20084;-75
2022/04/30 11:44:58;;;;;;;21.05;13.50;;;;;;;;;;4971544;28;20185;-76
2022/04/30 11:47:25;;;;;;;18.67;13.32;;;;;;;;;;4980478;28;20061;-76
2022/04/30 11:50:10;;;;;;;27.65;13.25;;;;;;;;;;4974196;28;20069;-76
2022/04/30 11:52:40;;;;;;;19.70;11.95;;;;;;;;;;4975934;28;20031;-76
2022/04/30 11:55:07;;;;;;;19.83;13.05;;;;;;;;;;4972544;28;20129;-76
2022/04/30 11:57:34;;;;;;;22.65;15.07;;;;;;;;;;4977584;28;20054;-76
2022/04/30 12:00:00;;;;;;;18.35;12.23;;;;;;;;;;4975227;28;20052;-76
2022/04/30 12:02:29;;;;;;;21.45;13.05;;;;;;;;;;4973809;28;20794;-76
2022/04/30 12:05:00;;;;;;;20.92;14.15;;;;;;;;;;4975992;28;20034;-75
2022/04/30 12:07:35;;;;;;;24.50;15.85;;;;;;;;;;4972400;28;20034;-75
2022/04/30 12:10:02;;;;;;;19.35;12.82;;;;;;;;;;4972382;28;20022;-75
2022/04/30 12:12:29;;;;;;;18.92;12.50;;;;;;;;;;4973497;28;20035;-73
2022/04/30 12:14:56;;;;;;;19.25;12.30;;;;;;;;;;4986335;28;20591;-74
2022/04/30 12:17:29;;;;;;;17.25;11.85;;;;;;;;;;4990518;28;20037;-75
2022/04/30 12:25:45;;;;;;;15.02;11.10;;;;;;;;;;4995778;28;20068;-77
2022/04/30 12:28:12;;;;;;;17.42;11.98;;;;;;;;;;4993699;28;20030;-75
2022/04/30 12:30:38;;;;;;;18.85;11.75;;;;;;;;;;4997218;28;20152;-76
2022/04/30 12:33:05;;;;;;;18.50;13.23;;;;;;;;;;4992475;28;20188;-76
2022/04/30 12:35:31;;;;;;;16.65;11.95;;;;;;;;;;4993762;28;20027;-76
2022/04/30 12:38:08;;;;;;;18.55;12.27;;;;;;;;;;5009816;28;20396;-76
2022/04/30 12:40:36;;;;;;;15.23;10.43;;;;;;;;;;4993670;28;20113;-75
2022/04/30 12:43:03;;;;;;;14.90;10.90;;;;;;;;;;4993051;28;20124;-75
2022/04/30 12:45:29;;;;;;;15.05;10.48;;;;;;;;;;4990409;28;20034;-76
2022/04/30 12:47:56;;;;;;;17.35;11.88;;;;;;;;;;4994643;28;20029;-76
2022/04/30 12:50:22;;;;;;;15.82;11.80;;;;;;;;;;4992692;28;20026;-76
2022/04/30 12:52:48;;;;;;;16.60;11.45;;;;;;;;;;4991564;28;20076;-76
2022/04/30 12:55:17;;;;;;;16.30;11.38;;;;;;;;;;4991569;28;20049;-75
2022/04/30 12:57:43;;;;;;;17.13;12.85;;;;;;;;;;4997657;28;20136;-76
2022/04/30 13:00:11;;;;;;;14.40;10.82;;;;;;;;;;4998165;28;20037;-76
2022/04/30 13:02:38;;;;;;;16.60;11.60;;;;;;;;;;4996374;28;20053;-76
2022/04/30 13:05:06;;;;;;;15.65;11.88;;;;;;;;;;4995118;28;20160;-76
2022/04/30 13:07:32;;;;;;;18.55;11.80;;;;;;;;;;4992924;28;20276;-75
2022/04/30 13:15:32;;;;;;;18.30;12.00;;;;;;;;;;4993193;28;20592;-76
2022/04/30 13:17:58;;;;;;;18.02;11.20;;;;;;;;;;4989894;28;20085;-76
2022/04/30 13:20:25;;;;;;;20.40;11.63;;;;;;;;;;4993839;28;20033;-75
2022/04/30 13:22:52;;;;;;;18.92;11.75;;;;;;;;;;4998585;28;20041;-76
2022/04/30 13:25:18;;;;;;;16.67;11.35;;;;;;;;;;5003467;28;20025;-78
2022/04/30 13:27:46;;;;;;;13.90;10.68;;;;;;;;;;4995559;28;20030;-77
2022/04/30 13:30:15;;;;;;;12.63;9.98;;;;;;;;;;4996757;28;20025;-75
2022/04/30 13:32:42;;;;;;;14.25;10.35;;;;;;;;;;4998407;28;20576;-76
2022/04/30 13:35:08;;;;;;;13.45;10.52;;;;;;;;;;5002770;28;20603;-76
2022/04/30 13:37:40;;;;;;;13.05;10.38;;;;;;;;;;5001006;28;20572;-77
2022/04/30 13:40:16;;;;;;;15.43;11.38;;;;;;;;;;5004355;28;20057;-77
2022/04/30 13:42:45;;;;;;;15.70;11.95;;;;;;;;;;4997917;28;20050;-75
2022/04/30 13:45:12;;;;;;;16.52;10.50;;;;;;;;;;5001569;28;20039;-75
2022/04/30 13:47:39;;;;;;;16.95;11.25;;;;;;;;;;5002053;28;20033;-75
2022/04/30 13:50:05;;;;;;;14.77;11.23;;;;;;;;;;5001550;28;20053;-76
2022/04/30 13:52:32;;;;;;;22.55;11.88;;;;;;;;;;5001067;28;20859;-76
2022/04/30 13:54:59;;;;;;;14.70;10.43;;;;;;;;;;5004003;28;20039;-76
2022/04/30 13:57:25;;;;;;;15.80;10.48;;;;;;;;;;5001499;28;20088;-75
2022/04/30 13:59:54;;;;;;;13.45;10.93;;;;;;;;;;4997172;28;20038;-75
2022/04/30 14:02:20;;;;;;;16.63;11.15;;;;;;;;;;5000352;28;20444;-75
2022/04/30 14:04:46;;;;;;;12.30;9.40;;;;;;;;;;5000283;28;20046;-75
2022/04/30 14:07:12;;;;;;;13.38;9.65;;;;;;;;;;5004601;28;20144;-76
2022/04/30 14:09:39;;;;;;;20.10;11.70;;;;;;;;;;5007710;28;20128;-75
2022/04/30 14:12:05;;;;;;;16.50;11.20;;;;;;;;;;5001503;28;20030;-76
2022/04/30 14:20:01;;;;;;;15.50;12.48;;;;;;;;;;5002655;28;20271;-76
2022/04/30 14:22:27;;;;;;;18.08;12.40;;;;;;;;;;5002184;28;20026;-75
2022/04/30 14:24:53;;;;;;;17.98;12.00;;;;;;;;;;4999100;28;20041;-75
2022/04/30 14:27:19;;;;;;;15.43;11.80;;;;;;;;;;5000908;28;20037;-75
2022/04/30 14:29:47;;;;;;;17.50;12.68;;;;;;;;;;5000744;28;20026;-75
2022/04/30 14:32:13;;;;;;;15.95;12.00;;;;;;;;;;4988601;28;20052;-76
2022/04/30 14:34:44;;;;;;;16.85;12.00;;;;;;;;;;4993467;28;20113;-76
2022/04/30 14:37:10;;;;;;;19.65;12.27;;;;;;;;;;4993109;28;20044;-76
2022/04/30 14:39:36;;;;;;;19.95;15.48;;;;;;;;;;4989672;28;20033;-76
2022/04/30 14:42:07;;;;;;;24.45;18.70;;;;;;;;;;4991094;28;20025;-76
2022/04/30 14:44:33;;;;;;;19.73;14.52;;;;;;;;;;4991860;28;20088;-77
2022/04/30 14:46:59;;;;;;;26.33;18.98;;;;;;;;;;4984915;28;20109;-77
2022/04/30 14:49:25;;;;;;;23.85;16.00;;;;;;;;;;4992812;28;20045;-76
2022/04/30 14:51:51;;;;;;;23.13;16.95;;;;;;;;;;4992279;28;20040;-75
2022/04/30 14:54:17;;;;;;;38.47;25.77;;;;;;;;;;4992873;28;20038;-77
2022/04/30 14:56:45;;;;;;;23.67;17.27;;;;;;;;;;4990407;28;20120;-77
2022/04/30 14:59:11;;;;;;;19.05;14.57;;;;;;;;;;4996133;28;20041;-78
2022/04/30 15:01:37;;;;;;;20.77;14.73;;;;;;;;;;4993515;28;20145;-76
2022/04/30 15:04:03;;;;;;;21.23;15.10;;;;;;;;;;4992752;28;20034;-76
2022/04/30 15:06:29;;;;;;;24.80;16.15;;;;;;;;;;4996261;28;20068;-78
2022/04/30 15:08:56;;;;;;;23.80;17.50;;;;;;;;;;4991561;28;20433;-77
2022/04/30 15:11:25;;;;;;;22.10;16.40;;;;;;;;;;4992596;28;20115;-78